sensor_id;sensor_type;location;lat;lon;timestamp;pressure;altitude;pressure_sealevel;temperature
18474;BMP180;30265;52.408;13.500;2022-09-27T00:06:36;99491.00;;;13.70
18474;BMP180;30265;52.408;13.500;2022-09-27T00:17:00;99464.00;;;13.70
18474;BMP180;30265;52.408;13.500;2022-09-27T00:27:24;99449.00;;;13.60
18474;BMP180;30265;52.408;13.500;2022-09-27T00:37:46;99446.00;;;13.50
18474;BMP180;30265;52.408;13.500;2022-09-27T00:48:13;99436.00;;;13.60
18474;BMP180;30265;52.408;13.500;2022-09-27T00:58:38;99412.00;;;13.60
18474;BMP180;30265;52.408;13.500;2022-09-27T01:09:06;99397.00;;;13.50
18474;BMP180;30265;52.408;13.500;2022-09-27T01:19:45;99392.00;;;13.80
18474;BMP180;30265;52.408;13.500;2022-09-27T01:30:24;99384.00;;;13.80
18474;BMP180;30265;52.408;13.500;2022-09-27T01:40:52;99359.00;;;13.90
18474;BMP180;30265;52.408;13.500;2022-09-27T01:51:30;99349.00;;;14.00
18474;BMP180;30265;52.408;13.500;2022-09-27T02:01:53;99342.00;;;14.20
18474;BMP180;30265;52.408;13.500;2022-09-27T02:12:30;99321.00;;;14.20
18474;BMP180;30265;52.408;13.500;2022-09-27T02:22:55;99305.00;;;14.30
18474;BMP180;30265;52.408;13.500;2022-09-27T02:33:22;99289.00;;;14.30
18474;BMP180;30265;52.408;13.500;2022-09-27T02:43:47;99284.00;;;14.20
18474;BMP180;30265;52.408;13.500;2022-09-27T02:54:18;99269.00;;;14.30
18474;BMP180;30265;52.408;13.500;2022-09-27T03:04:58;99259.00;;;14.20
18474;BMP180;30265;52.408;13.500;2022-09-27T03:15:24;99266.00;;;14.20
18474;BMP180;30265;52.408;13.500;2022-09-27T03:25:52;99247.00;;;14.20
18474;BMP180;30265;52.408;13.500;2022-09-27T03:36:16;99240.00;;;14.20
18474;BMP180;30265;52.408;13.500;2022-09-27T03:46:38;99226.00;;;13.80
18474;BMP180;30265;52.408;13.500;2022-09-27T03:57:01;99229.00;;;13.70
18474;BMP180;30265;52.408;13.500;2022-09-27T04:07:25;99206.00;;;13.60
18474;BMP180;30265;52.408;13.500;2022-09-27T04:17:49;99223.00;;;13.70
18474;BMP180;30265;52.408;13.500;2022-09-27T04:28:26;99213.00;;;13.60
18474;BMP180;30265;52.408;13.500;2022-09-27T04:38:51;99196.00;;;13.70
18474;BMP180;30265;52.408;13.500;2022-09-27T04:49:14;99202.00;;;13.60
18474;BMP180;30265;52.408;13.500;2022-09-27T04:59:39;99210.00;;;13.40
18474;BMP180;30265;52.408;13.500;2022-09-27T05:10:02;99208.00;;;13.40
18474;BMP180;30265;52.408;13.500;2022-09-27T05:20:25;99211.00;;;13.30
18474;BMP180;30265;52.408;13.500;2022-09-27T05:30:52;99206.00;;;13.10
18474;BMP180;30265;52.408;13.500;2022-09-27T05:41:16;99213.00;;;12.90
18474;BMP180;30265;52.408;13.500;2022-09-27T05:51:38;99209.00;;;12.90
18474;BMP180;30265;52.408;13.500;2022-09-27T06:02:01;99204.00;;;12.90
18474;BMP180;30265;52.408;13.500;2022-09-27T06:12:43;99194.00;;;12.80
18474;BMP180;30265;52.408;13.500;2022-09-27T06:23:22;99203.00;;;12.70
18474;BMP180;30265;52.408;13.500;2022-09-27T06:33:46;99195.00;;;12.80
18474;BMP180;30265;52.408;13.500;2022-09-27T06:44:09;99193.00;;;12.80
18474;BMP180;30265;52.408;13.500;2022-09-27T06:54:52;99198.00;;;12.80
18474;BMP180;30265;52.408;13.500;2022-09-27T07:05:15;99198.00;;;12.80
18474;BMP180;30265;52.408;13.500;2022-09-27T07:15:56;99191.00;;;13.00
18474;BMP180;30265;52.408;13.500;2022-09-27T07:26:19;99198.00;;;13.10
18474;BMP180;30265;52.408;13.500;2022-09-27T07:36:42;99193.00;;;13.10
18474;BMP180;30265;52.408;13.500;2022-09-27T07:47:07;99200.00;;;13.20
18474;BMP180;30265;52.408;13.500;2022-09-27T07:58:09;99203.00;;;13.40
18474;BMP180;30265;52.408;13.500;2022-09-27T08:08:33;99211.00;;;13.30
18474;BMP180;30265;52.408;13.500;2022-09-27T08:18:56;99198.00;;;13.30
18474;BMP180;30265;52.408;13.500;2022-09-27T08:29:55;99197.00;;;13.50
18474;BMP180;30265;52.408;13.500;2022-09-27T08:40:17;99203.00;;;13.60
18474;BMP180;30265;52.408;13.500;2022-09-27T08:50:45;99214.00;;;13.70
18474;BMP180;30265;52.408;13.500;2022-09-27T09:01:12;99216.00;;;13.60
18474;BMP180;30265;52.408;13.500;2022-09-27T09:11:56;99212.00;;;13.70
18474;BMP180;30265;52.408;13.500;2022-09-27T09:22:49;99216.00;;;14.10
18474;BMP180;30265;52.408;13.500;2022-09-27T09:33:22;99215.00;;;14.00
18474;BMP180;30265;52.408;13.500;2022-09-27T09:43:50;99212.00;;;14.20
18474;BMP180;30265;52.408;13.500;2022-09-27T09:54:19;99199.00;;;14.30
18474;BMP180;30265;52.408;13.500;2022-09-27T10:04:42;99197.00;;;14.90
18474;BMP180;30265;52.408;13.500;2022-09-27T10:15:11;99193.00;;;15.10
18474;BMP180;30265;52.408;13.500;2022-09-27T10:25:51;99190.00;;;15.00
18474;BMP180;30265;52.408;13.500;2022-09-27T10:36:35;99167.00;;;15.70
18474;BMP180;30265;52.408;13.500;2022-09-27T10:47:00;99172.00;;;16.10
18474;BMP180;30265;52.408;13.500;2022-09-27T10:57:36;99174.00;;;16.50
18474;BMP180;30265;52.408;13.500;2022-09-27T11:08:21;99161.00;;;16.40
18474;BMP180;30265;52.408;13.500;2022-09-27T11:19:03;99167.00;;;16.20
18474;BMP180;30265;52.408;13.500;2022-09-27T11:29:42;99166.00;;;16.30
18474;BMP180;30265;52.408;13.500;2022-09-27T11:40:32;99160.00;;;16.20
18474;BMP180;30265;52.408;13.500;2022-09-27T11:51:09;99199.00;;;13.60
18474;BMP180;30265;52.408;13.500;2022-09-27T12:01:43;99216.00;;;12.10
18474;BMP180;30265;52.408;13.500;2022-09-27T12:12:11;99231.00;;;12.20
18474;BMP180;30265;52.408;13.500;2022-09-27T12:22:43;99237.00;;;13.20
18474;BMP180;30265;52.408;13.500;2022-09-27T12:33:37;99230.00;;;14.00
18474;BMP180;30265;52.408;13.500;2022-09-27T12:44:04;99227.00;;;14.20
18474;BMP180;30265;52.408;13.500;2022-09-27T13:16:16;99241.00;;;14.90
18474;BMP180;30265;52.408;13.500;2022-09-27T13:26:44;99252.00;;;14.30
18474;BMP180;30265;52.408;13.500;2022-09-27T13:37:45;99254.00;;;14.70
18474;BMP180;30265;52.408;13.500;2022-09-27T13:48:14;99255.00;;;15.10
18474;BMP180;30265;52.408;13.500;2022-09-27T13:58:44;99255.00;;;14.70
18474;BMP180;30265;52.408;13.500;2022-09-27T14:09:39;99260.00;;;14.00
18474;BMP180;30265;52.408;13.500;2022-09-27T14:20:29;99283.00;;;14.60
18474;BMP180;30265;52.408;13.500;2022-09-27T14:31:13;99277.00;;;14.50
18474;BMP180;30265;52.408;13.500;2022-09-27T14:41:47;99307.00;;;14.80
18474;BMP180;30265;52.408;13.500;2022-09-27T14:52:16;99316.00;;;14.70
18474;BMP180;30265;52.408;13.500;2022-09-27T15:02:40;99326.00;;;14.60
18474;BMP180;30265;52.408;13.500;2022-09-27T15:13:04;99339.00;;;14.70
18474;BMP180;30265;52.408;13.500;2022-09-27T15:23:28;99336.00;;;14.50
18474;BMP180;30265;52.408;13.500;2022-09-27T15:33:54;99351.00;;;14.60
18474;BMP180;30265;52.408;13.500;2022-09-27T15:44:35;99356.00;;;14.50
18474;BMP180;30265;52.408;13.500;2022-09-27T15:54:58;99361.00;;;14.10
18474;BMP180;30265;52.408;13.500;2022-09-27T16:05:20;99373.00;;;13.90
18474;BMP180;30265;52.408;13.500;2022-09-27T16:15:44;99373.00;;;13.90
18474;BMP180;30265;52.408;13.500;2022-09-27T16:26:06;99383.00;;;13.70
18474;BMP180;30265;52.408;13.500;2022-09-27T16:36:29;99394.00;;;13.90
18474;BMP180;30265;52.408;13.500;2022-09-27T16:46:52;99395.00;;;13.70
18474;BMP180;30265;52.408;13.500;2022-09-27T16:57:15;99399.00;;;13.60
18474;BMP180;30265;52.408;13.500;2022-09-27T17:07:36;99406.00;;;13.40
18474;BMP180;30265;52.408;13.500;2022-09-27T17:18:02;99417.00;;;13.30
18474;BMP180;30265;52.408;13.500;2022-09-27T17:28:34;99426.00;;;13.10
18474;BMP180;30265;52.408;13.500;2022-09-27T17:39:03;99428.00;;;13.30
18474;BMP180;30265;52.408;13.500;2022-09-27T17:49:25;99416.00;;;13.10
18474;BMP180;30265;52.408;13.500;2022-09-27T18:00:06;99431.00;;;12.80
18474;BMP180;30265;52.408;13.500;2022-09-27T18:10:34;99437.00;;;12.50
18474;BMP180;30265;52.408;13.500;2022-09-27T18:21:02;99460.00;;;12.50
18474;BMP180;30265;52.408;13.500;2022-09-27T18:31:25;99454.00;;;12.60
18474;BMP180;30265;52.408;13.500;2022-09-27T18:41:48;99466.00;;;12.60
18474;BMP180;30265;52.408;13.500;2022-09-27T18:52:10;99474.00;;;12.50
18474;BMP180;30265;52.408;13.500;2022-09-27T19:02:32;99473.00;;;12.10
18474;BMP180;30265;52.408;13.500;2022-09-27T19:12:54;99496.00;;;12.10
18474;BMP180;30265;52.408;13.500;2022-09-27T19:23:18;99494.00;;;12.00
18474;BMP180;30265;52.408;13.500;2022-09-27T19:33:42;99489.00;;;12.20
18474;BMP180;30265;52.408;13.500;2022-09-27T19:44:05;99487.00;;;12.40
18474;BMP180;30265;52.408;13.500;2022-09-27T19:54:37;99487.00;;;11.70
18474;BMP180;30265;52.408;13.500;2022-09-27T20:05:06;99483.00;;;11.60
18474;BMP180;30265;52.408;13.500;2022-09-27T20:15:35;99491.00;;;11.10
18474;BMP180;30265;52.408;13.500;2022-09-27T20:26:04;99481.00;;;11.70
18474;BMP180;30265;52.408;13.500;2022-09-27T20:36:29;99487.00;;;11.00
18474;BMP180;30265;52.408;13.500;2022-09-27T20:46:54;99492.00;;;11.20
18474;BMP180;30265;52.408;13.500;2022-09-27T20:57:16;99490.00;;;11.70
18474;BMP180;30265;52.408;13.500;2022-09-27T21:08:03;99488.00;;;12.20
18474;BMP180;30265;52.408;13.500;2022-09-27T21:18:29;99497.00;;;11.90
18474;BMP180;30265;52.408;13.500;2022-09-27T21:28:58;99499.00;;;11.40
18474;BMP180;30265;52.408;13.500;2022-09-27T21:39:20;99506.00;;;11.00
18474;BMP180;30265;52.408;13.500;2022-09-27T21:49:58;99518.00;;;10.60
18474;BMP180;30265;52.408;13.500;2022-09-27T22:00:21;99514.00;;;10.70
18474;BMP180;30265;52.408;13.500;2022-09-27T22:10:50;99522.00;;;10.60
18474;BMP180;30265;52.408;13.500;2022-09-27T22:21:18;99514.00;;;10.40
18474;BMP180;30265;52.408;13.500;2022-09-27T22:31:42;99510.00;;;10.50
18474;BMP180;30265;52.408;13.500;2022-09-27T22:42:09;99513.00;;;10.30
18474;BMP180;30265;52.408;13.500;2022-09-27T22:52:36;99507.00;;;10.10
18474;BMP180;30265;52.408;13.500;2022-09-27T23:02:59;99514.00;;;10.10
18474;BMP180;30265;52.408;13.500;2022-09-27T23:13:22;99500.00;;;10.40
18474;BMP180;30265;52.408;13.500;2022-09-27T23:23:44;99506.00;;;10.30
18474;BMP180;30265;52.408;13.500;2022-09-27T23:34:11;99513.00;;;10.20
18474;BMP180;30265;52.408;13.500;2022-09-27T23:55:08;99502.00;;;10.80
